Tiempo atmosférico en la estación meteorológica de Tarragona, Tarragona (60 m.)



Fecha
DESCASC
Temp. máxima en grados centígrados (hora)
DESCASC
Temp. mínima en grados centígrados (hora)
DESCASC
Temp. media en grados centígrados
DESCASC
Racha de viento máxima en m/sg (hora)
DESCASC
Velocidad máxima media en intervalos de 10 minutos(hora)
DESCASC
Precipitaciones diarias en mm
DESCASC
Precipitaciones de 00:00 a 06:00 en mm
DESCASC
Precipitaciones de 06:00 a 12:00 en mm
DESCASC
Precipitaciones de 12:00 a 18:00 en mm
DESCASC
Precipitaciones de 18:00 a 24:00 en mm
DESCASC
27-01-2020 16.9 (14:20) 5 (03:40) 10.9 -- (--) -- (--) 0 0 0 0 0
26-01-2020 16.7 (13:10) 7.5 (23:59) 12.1 -- (--) -- (--) 0 0 0 0 0
25-01-2020 14.4 (16:20) 8.7 (00:00) 11.5 -- (--) -- (--) 0 0 0 0 0
24-01-2020 15.5 (14:00) 6 (00:00) 10.8 -- (--) -- (--) 0 0 0 0 0
23-01-2020 14.5 (14:40) 7 (00:00) 10.8 -- (--) -- (--) 17 14.6 2.4 0 0
22-01-2020 14.1 (11:50) 8.4 (00:00) 11.3 -- (--) -- (--) 6.6 0 0 0.2 6.4
21-01-2020 12.9 (14:30) 7.8 (00:00) 10.3 -- (--) -- (--) 71.2 12.2 18.8 10.2 30
20-01-2020 11.6 (16:30) 8.7 (00:00) 10.2 -- (--) -- (--) 1 0.2 0 0 0.8
19-01-2020 10.9 (02:40) 8.6 (00:00) 9.8 -- (--) -- (--) 5.2 0 5.2 0 0
18-01-2020 15 (13:30) 7.3 (00:00) 11.2 -- (--) -- (--) 4 0 0 0 4
17-01-2020 18.8 (15:20) 7.2 (00:00) 13 -- (--) -- (--) 0 0 0 0 0
16-01-2020 16 (15:30) 5.9 (00:00) 11 -- (--) -- (--) 0 0 0 0 0
15-01-2020 14.6 (16:00) 4.8 (00:00) 9.7 -- (--) -- (--) 0 0 0 0 0
14-01-2020 15.1 (13:10) 4 (00:00) 9.6 -- (--) -- (--) 0 0 0 0 0
13-01-2020 13.4 (14:20) 3.5 (00:00) 8.4 -- (--) -- (--) 0 0 0 0 0
12-01-2020 15.2 (16:10) 3.4 (05:10) 9.3 -- (--) -- (--) 0 0 0 0 0
11-01-2020 15 (13:30) 3.7 (00:00) 9.4 -- (--) -- (--) 0 0 0 0 0
10-01-2020 12.1 (16:00) 5.9 (00:00) 9 -- (--) -- (--) 1.6 0 1.2 0.4 0
09-01-2020 15.3 (13:20) 7.3 (00:00) 11.3 -- (--) -- (--) 0 0 0 0 0
08-01-2020 17.5 (14:30) 5.3 (00:00) 11.4 -- (--) -- (--) 0 0 0 0 0
07-01-2020 14.4 (15:30) 4.4 (00:00) 9.4 -- (--) -- (--) 0 0 0 0 0
06-01-2020 15 (14:40) 5.3 (00:00) 10.2 -- (--) -- (--) 0 0 0 0 0
05-01-2020 16.6 (15:20) 6.4 (00:00) 11.5 -- (--) -- (--) 0 0 0 0 0
04-01-2020 15.8 (15:20) 3.8 (00:00) 9.8 -- (--) -- (--) 0 0 0 0 0
03-01-2020 11.1 (14:00) 5.1 (00:00) 8.1 -- (--) -- (--) 0 0 0 0 0
02-01-2020 13.7 (14:40) 4 (00:00) 8.8 -- (--) -- (--) 0 0 0 0 0
01-01-2020 13.4 (15:10) 4.3 (00:00) 8.8 -- (--) -- (--) 0 0 0 0 0
31-12-2019 14.6 (14:50) 5.7 (00:00) 10.2 -- (--) -- (--) 0 0 0 0 0
30-12-2019 -- (--) -- (--) -- -- (--) -- (--) -- 0 0 -- 0

Gráficas

Temp. máximas Temp. mínimas Temp. medias Precipitaciones Rachas de viento máximas Velocidades máximas media en intervalos de 10 minutos

Datos horarios

Fecha y hora oficial Temperatura (ºC) Velocidad del viento (km/h) Dirección del viento Racha (km/h) Dirección de racha Precipitación (mm) Presión (hPa) Tendencia (hPa) Humedad (%)
2020-01-28 23:00:00 11.4 0 Calma 8 Noroeste 0 -- -- 84
2020-01-28 22:00:00 12.1 0 Calma 7 Noroeste 0 -- -- 80
2020-01-28 21:00:00 13 3 Noroeste 9 Noroeste 0 -- -- 78
2020-01-28 20:00:00 13.9 3 Noroeste 9 Noroeste 0 -- -- 74
2020-01-28 19:00:00 15.1 3 Noroeste 10 Oeste 0 -- -- 70
2020-01-28 18:00:00 16.6 5 Oeste 15 Oeste 0 -- -- 64
2020-01-28 17:00:00 17.5 5 Oeste 19 Sudoeste 0 -- -- 61
2020-01-28 16:00:00 17.8 9 Noroeste 27 Noroeste 0 -- -- 58
2020-01-28 15:00:00 17.9 11 Noroeste 31 Noroeste 0 -- -- 59
2020-01-28 14:00:00 17.5 12 Noroeste 29 Noroeste 0 -- -- 59
2020-01-28 13:00:00 17 10 Noroeste 27 Noroeste 0 -- -- 60
2020-01-28 12:00:00 17.2 10 Noroeste 26 Noroeste 0 -- -- 58
2020-01-28 11:00:00 14.5 12 Noroeste 26 Noroeste 0 -- -- 64
2020-01-28 10:00:00 13.5 8 Noroeste 26 Noroeste 0 -- -- 66
2020-01-28 09:00:00 11.4 11 Noroeste 21 Noroeste 0 -- -- 72
2020-01-28 08:00:00 11.3 8 Noroeste 16 Oeste 0 -- -- 70
2020-01-28 07:00:00 11.2 8 Noroeste 23 Noroeste 0 -- -- 70
2020-01-28 06:00:00 11.1 4 Noroeste 15 Sudoeste 0 -- -- 69
2020-01-28 05:00:00 11.5 3 Oeste 21 Oeste 0 -- -- 67
2020-01-28 04:00:00 10.7 4 Noroeste 15 Oeste 0 -- -- 70
2020-01-28 03:00:00 11.5 5 Oeste 15 Sudoeste 0 -- -- 66
2020-01-28 02:00:00 9.6 4 Noroeste 10 Noroeste 0 -- -- 73
2020-01-28 01:00:00 9.6 4 Oeste 11 Sudoeste 0 -- -- 71
2020-01-28 00:00:00 9.8 2 Oeste 10 Oeste 0 -- -- 71
2020-01-27 23:00:00 10.2 4 Oeste 12 Oeste 0 -- -- 70
2020-01-27 22:00:00 10.7 2 Noroeste 9 Oeste 0 -- -- 68
2020-01-27 21:00:00 11.6 4 Oeste 13 Oeste 0 -- -- 63
2020-01-27 20:00:00 12 5 Oeste 13 Oeste 0 -- -- 63
2020-01-27 19:00:00 12.5 6 Oeste 18 Oeste 0 -- -- 59
2020-01-27 18:00:00 13 6 Oeste 16 Sudoeste 0 -- -- 57
2020-01-27 17:00:00 13.7 4 Oeste 17 Oeste 0 -- -- 70
2020-01-27 16:00:00 14.3 6 Sudoeste 20 Noroeste 0 -- -- 68
2020-01-27 15:00:00 15.8 7 Noroeste 24 Noroeste 0 -- -- 45
2020-01-27 14:00:00 16.6 6 Oeste 22 Norte 0 -- -- 47
2020-01-27 13:00:00 16.7 7 Oeste 22 Oeste 0 -- -- 45
2020-01-27 12:00:00 16.1 5 Sudoeste 13 Oeste 0 -- -- 49
2020-01-27 11:00:00 12.6 3 Oeste 10 Noroeste 0 -- -- 61
2020-01-27 10:00:00 10.9 3 Noroeste 10 Noroeste 0 -- -- 67
2020-01-27 09:00:00 7.1 4 Noroeste 12 Noroeste 0 -- -- 79
2020-01-27 08:00:00 6.1 0 Calma 11 Noroeste 0 -- -- 82
2020-01-27 07:00:00 5.4 0 Calma 14 Noroeste 0 -- -- 86
2020-01-27 06:00:00 5.9 3 Noroeste 9 Oeste 0 -- -- 84
2020-01-27 05:00:00 5.3 4 Noroeste 13 Noroeste 0 -- -- 91
2020-01-27 04:00:00 5.1 3 Noroeste 7 Noroeste 0 -- -- 93
2020-01-27 03:00:00 5.4 3 Noroeste 9 Norte 0 -- -- 92
2020-01-27 02:00:00 6.1 4 Noroeste 7 Noroeste 0 -- -- 90
2020-01-27 01:00:00 6.6 0 Calma 5 Noroeste 0 -- -- 90
2020-01-27 00:00:00 7.5 2 Noroeste 5 Noroeste 0 -- -- 89
2020-01-26 23:00:00 8 0 Calma 6 Noroeste 0 -- -- 87
2020-01-26 22:00:00 9 0 Calma 8 Noroeste 0 -- -- 84
2020-01-26 21:00:00 9.5 3 Norte 5 Noroeste 0 -- -- 80
2020-01-26 20:00:00 10.5 0 Calma 5 Norte 0 -- -- 78
2020-01-26 19:00:00 11.3 3 Norte 5 Norte 0 -- -- 74
2020-01-26 18:00:00 13.3 2 Norte 8 Noroeste 0 -- -- 67
2020-01-26 17:00:00 15.3 4 Noroeste 18 Noroeste 0 -- -- 58
2020-01-26 16:00:00 16.1 6 Norte 14 Noroeste 0 -- -- 60
2020-01-26 15:00:00 14.6 6 Norte 18 Noroeste 0 -- -- 63
2020-01-26 14:00:00 16 8 Norte 17 Norte 0 -- -- 60
2020-01-26 13:00:00 16.3 3 Noroeste 10 Sudoeste 0 -- -- 61
2020-01-26 12:00:00 15.1 3 Noroeste 9 Oeste 0 -- -- 66
2020-01-26 11:00:00 13.3 2 Norte 8 Norte 0 -- -- 74
2020-01-26 10:00:00 11.4 2 Noroeste 8 Noroeste 0 -- -- 86
2020-01-26 09:00:00 8 3 Noroeste 6 Noroeste 0 -- -- 93
2020-01-26 08:00:00 8.3 0 Calma 5 Noroeste 0 -- -- 93
2020-01-26 07:00:00 8.6 3 Noroeste 6 Norte 0 -- -- 92
2020-01-26 06:00:00 9 3 Norte 8 Norte 0 -- -- 93
2020-01-26 05:00:00 8.8 0 Calma 3 Noroeste 0 -- -- 91
2020-01-26 04:00:00 9.1 0 Calma 4 Noroeste 0 -- -- 91
2020-01-26 03:00:00 9.4 0 Calma 6 Norte 0 -- -- 88
2020-01-26 02:00:00 9.7 3 Noroeste 8 Norte 0 -- -- 86
2020-01-26 01:00:00 9.9 2 Norte 10 Norte 0 -- -- 86
2020-01-26 00:00:00 10.3 5 Norte 11 Norte 0 -- -- 86
2020-01-25 23:00:00 10.4 5 Norte 10 Norte 0 -- -- 87
2020-01-25 22:00:00 10.5 2 Noroeste 6 Norte 0 -- -- 88
2020-01-25 21:00:00 10.8 4 Norte 7 Noroeste 0 -- -- 87
2020-01-25 20:00:00 11.2 0 Calma 4 Noroeste 0 -- -- 87
2020-01-25 19:00:00 11.9 0 Calma 3 Norte 0 -- -- 86
2020-01-25 18:00:00 13 0 Calma 9 Este 0 -- -- 83
2020-01-25 17:00:00 13.7 5 Sudeste 12 Sudeste 0 -- -- 79
2020-01-25 16:00:00 14.1 5 Sudeste 12 Este 0 -- -- 75
2020-01-25 15:00:00 13.7 5 Este 13 Sudeste 0 -- -- 75
2020-01-25 14:00:00 13.6 3 Este 8 Sudeste 0 -- -- 77
2020-01-25 13:00:00 12.8 3 Norte 9 Norte 0 -- -- 79
2020-01-25 12:00:00 12.3 3 Norte 8 Nordeste 0 -- -- 82
2020-01-25 11:00:00 11.3 4 Este 15 Nordeste 0 -- -- 87
2020-01-25 10:00:00 10.9 4 Este 9 Este 0 -- -- 88
2020-01-25 09:00:00 9.8 0 Calma 3 Sudeste 0 -- -- 94
2020-01-25 08:00:00 9.6 2 Norte 6 Este 0 -- -- 95
2020-01-25 07:00:00 9.5 2 Este 4 Este 0 -- -- 95
2020-01-25 06:00:00 9.4 0 Calma 6 Norte 0 -- -- 95
2020-01-25 05:00:00 8.9 0 Calma 3 Noroeste 0 -- -- 95
2020-01-25 04:00:00 8.8 0 Calma 3 Este 0 -- -- 94
2020-01-25 03:00:00 9.2 0 Calma 3 Este 0 -- -- 94
2020-01-25 02:00:00 8.9 0 Calma 4 Noroeste 0 -- -- 92
2020-01-25 01:00:00 9.6 0 Calma 3 Noroeste 0 -- -- 92
2020-01-25 00:00:00 9.5 0 Calma 3 Noroeste 0 -- -- 92
2020-01-24 23:00:00 9.6 0 Calma 3 Noroeste 0 -- -- 91
2020-01-24 22:00:00 9.9 0 Calma 5 Noroeste 0 -- -- 91
2020-01-24 21:00:00 9.9 3 Noroeste 5 Norte 0 -- -- 90
2020-01-24 20:00:00 10.5 0 Calma 4 Noroeste 0 -- -- 87
2020-01-24 19:00:00 11.3 2 Noroeste 7 Oeste 0 -- -- 84
2020-01-24 18:00:00 12.3 4 Oeste 10 Oeste 0 -- -- 78
2020-01-24 17:00:00 13.5 4 Oeste 9 Oeste 0 -- -- 73
2020-01-24 16:00:00 14.5 5 Sudoeste 17 Sudoeste 0 -- -- 70
2020-01-24 15:00:00 15.1 7 Sur 14 Sudeste 0 -- -- 68
2020-01-24 14:00:00 15.5 5 Sudoeste 11 Sudoeste 0 -- -- 63
2020-01-24 13:00:00 15 5 Sudoeste 11 Sudoeste 0 -- -- 65
2020-01-24 12:00:00 14.2 3 Sudoeste 10 Noroeste 0 -- -- 65
2020-01-24 11:00:00 12.6 4 Noroeste 8 Norte 0 -- -- 70
2020-01-24 10:00:00 9.5 4 Noroeste 9 Noroeste 0 -- -- 80
2020-01-24 09:00:00 7.3 3 Noroeste 9 Norte 0 -- -- 86
2020-01-24 08:00:00 7.3 4 Norte 10 Noroeste 0 -- -- 84
2020-01-24 07:00:00 7.5 5 Norte 11 Norte 0 -- -- 84
2020-01-24 06:00:00 7.2 4 Norte 11 Noroeste 0 -- -- 87
2020-01-24 05:00:00 6 0 Calma 6 Noroeste 0 -- -- 92
2020-01-24 04:00:00 6 4 Noroeste 6 Noroeste 0 -- -- 92
2020-01-24 03:00:00 6.5 0 Calma 3 Este 0 -- -- 91
2020-01-24 02:00:00 6.8 0 Calma 6 Norte 0 -- -- 88
2020-01-24 01:00:00 7 3 Norte 8 Noroeste 0 -- -- 90
2020-01-24 00:00:00 7 0 Calma 9 Noroeste 0 -- -- 91
2020-01-23 23:00:00 7.6 6 Noroeste 10 Noroeste 0 -- -- 91
2020-01-23 22:00:00 8.3 0 Calma 8 Noroeste 0 -- -- 90
2020-01-23 21:00:00 8.6 3 Noroeste 6 Norte 0 -- -- 89
2020-01-23 20:00:00 9.1 2 Noroeste 5 Noroeste 0 -- -- 87
2020-01-23 19:00:00 10.3 0 Calma 4 Noroeste 0 -- -- 82
2020-01-23 18:00:00 11.6 2 Oeste 13 Sudeste 0 -- -- 74
2020-01-23 17:00:00 13 4 Sur 12 Sudeste 0 -- -- 70
2020-01-23 16:00:00 14.4 6 Sudeste 10 Sudeste 0 -- -- 66
2020-01-23 15:00:00 14.3 7 Sudeste 11 Sudeste 0 -- -- 69
2020-01-23 14:00:00 13.9 6 Sudeste 15 Sudeste 0 -- -- 71
2020-01-23 13:00:00 13.8 7 Sudeste 12 Sudeste 0 -- -- 72
2020-01-23 12:00:00 12.8 2 Sudeste 7 Noroeste 0 -- -- 75
2020-01-23 11:00:00 11.5 3 Noroeste 8 Noroeste 0 -- -- 83
2020-01-23 10:00:00 9.8 2 Noroeste 9 Norte 0.6 -- -- 93
2020-01-23 09:00:00 8.6 0 Calma 9 Noroeste 1.8 -- -- 91
2020-01-23 08:00:00 8.9 2 Sudoeste 14 Norte 0 -- -- 87
2020-01-23 07:00:00 8.9 5 Norte 19 Norte 0 -- -- 84
2020-01-23 06:00:00 8.3 8 Norte 24 Norte 0 -- -- 87
2020-01-23 05:00:00 8 8 Norte 20 Norte 0.2 -- -- 90
2020-01-23 04:00:00 7.8 9 Noroeste 28 Norte 9 -- -- 93
2020-01-23 03:00:00 8.7 9 Oeste 30 Norte 4.2 -- -- 90
2020-01-23 02:00:00 12.6 8 Norte 24 Sudeste 0.6 -- -- 91
2020-01-23 01:00:00 13.6 11 Este 37 Este 0.6 -- -- 95
2020-01-23 00:00:00 13.6 10 Este 32 Este 2 -- -- 94
2020-01-22 23:00:00 13.6 12 Este 35 Este 0.6 -- -- 94
2020-01-22 22:00:00 13.7 12 Este 32 Este 2.4 -- -- 94
2020-01-22 21:00:00 13.7 13 Este 35 Este 1.2 -- -- 93
2020-01-22 20:00:00 13.8 13 Este 38 Este 0 -- -- 93
2020-01-22 19:00:00 13.7 14 Este 40 Este 0.2 -- -- 93
2020-01-22 18:00:00 13.8 17 Este 41 Este 0 -- -- 92
2020-01-22 17:00:00 13.9 16 Este 34 Este 0 -- -- 93
2020-01-22 16:00:00 14.1 8 Este 24 Este 0 -- -- 92
2020-01-22 15:00:00 14.1 6 Este 24 Este 0.2 -- -- 92
2020-01-22 14:00:00 14 6 Este 33 Este 0 -- -- 92
2020-01-22 13:00:00 14 8 Este 27 Este 0 -- -- 90
2020-01-22 12:00:00 14.1 8 Este 21 Este 0 -- -- 82
2020-01-22 11:00:00 12.4 3 Norte 12 Noroeste 0 -- -- 82
2020-01-22 10:00:00 10.8 8 Noroeste 16 Noroeste 0 -- -- 84
2020-01-22 09:00:00 9.7 6 Noroeste 12 Norte 0 -- -- 86
2020-01-22 08:00:00 9 4 Noroeste 12 Norte 0 -- -- 87
2020-01-22 07:00:00 9.3 5 Noroeste 17 Nordeste 0 -- -- 86
2020-01-22 06:00:00 9.4 7 Norte 17 Noroeste 0 -- -- 87
2020-01-22 05:00:00 9.4 7 Norte 19 Norte 0 -- -- 86
2020-01-22 04:00:00 9.5 10 Norte 22 Norte 0 -- -- 86
2020-01-22 03:00:00 9.5 8 Norte 18 Norte 0 -- -- 87
2020-01-22 02:00:00 9.2 5 Norte 18 Norte 0 -- -- 92
2020-01-22 01:00:00 8.5 7 Norte 18 Norte 0 -- -- 93
2020-01-22 00:00:00 8.5 9 Norte 20 Norte 0.6 -- -- 94
2020-01-21 23:00:00 8.5 7 Norte 27 Nordeste 1.8 -- -- 94
2020-01-21 22:00:00 8.9 10 Nordeste 41 Este 7.8 -- -- 95
2020-01-21 21:00:00 8.9 14 Este 47 Este 15 -- -- 93
2020-01-21 20:00:00 11.1 14 Nordeste 40 Este 3.2 -- -- 90
2020-01-21 19:00:00 11.1 10 Nordeste 43 Este 1.6 -- -- 91
2020-01-21 18:00:00 11.2 12 Nordeste 40 Este 1.2 -- -- 90
2020-01-21 17:00:00 11.5 13 Este 47 Este 3.4 -- -- 91
2020-01-21 16:00:00 11.8 14 Nordeste 62 Este 2.6 -- -- 89
2020-01-21 15:00:00 12.7 21 Este 57 Este 0.2 -- -- 85
2020-01-21 14:00:00 12.4 22 Este 74 Este 1.2 -- -- 88
2020-01-21 13:00:00 12.2 17 Este 62 Este 1.6 -- -- 90
2020-01-21 12:00:00 11.6 18 Este 47 Nordeste 2.6 -- -- 93
2020-01-21 11:00:00 10.1 12 Este 49 Nordeste 4 -- -- 92
2020-01-21 10:00:00 9.5 12 Nordeste 41 Este 7.2 -- -- 91
2020-01-21 09:00:00 9.5 16 Nordeste 45 Nordeste 2.2 -- -- 90
2020-01-21 08:00:00 9.3 12 Nordeste 39 Norte 2 -- -- 90
2020-01-21 07:00:00 8.9 12 Nordeste 49 Nordeste 0.8 -- -- 88
2020-01-21 06:00:00 8.5 17 Nordeste 52 Este 1.2 -- -- 88
2020-01-21 05:00:00 8.1 18 Nordeste 46 Nordeste 1.2 -- -- 87
2020-01-21 04:00:00 8.1 17 Nordeste 48 Nordeste 4.6 -- -- 86
2020-01-21 03:00:00 7.8 17 Nordeste 54 Nordeste 4.4 -- -- 86
2020-01-21 02:00:00 8.5 19 Nordeste 55 Norte 0.8 -- -- 79
2020-01-21 01:00:00 9.5 20 Nordeste 56 Nordeste 0 -- -- 69
2020-01-21 00:00:00 8.9 16 Nordeste 45 Nordeste 0.8 -- -- 75
2020-01-20 23:00:00 9.4 14 Nordeste 56 Nordeste 0 -- -- 69
2020-01-20 22:00:00 9.4 17 Nordeste 45 Este 0 -- -- 71
2020-01-20 21:00:00 9.8 14 Nordeste 46 Nordeste 0 -- -- 66
2020-01-20 20:00:00 10.3 14 Nordeste 44 Este 0 -- -- 60
2020-01-20 19:00:00 10.4 10 Nordeste 41 Sudeste 0 -- -- 59
2020-01-20 18:00:00 10.3 15 Nordeste 59 Nordeste 0 -- -- 59
2020-01-20 17:00:00 11.2 15 Nordeste 53 Este 0 -- -- 56
2020-01-20 16:00:00 11.4 13 Este 48 Este 0 -- -- 53
2020-01-20 15:00:00 11.3 10 Nordeste 51 Este 0 -- -- 52
2020-01-20 14:00:00 11.5 10 Nordeste 40 Norte 0 -- -- 52
2020-01-20 13:00:00 11.2 8 Nordeste 33 Nordeste 0 -- -- 53
2020-01-20 12:00:00 10.9 9 Nordeste 33 Nordeste 0 -- -- 51
2020-01-20 11:00:00 10.8 8 Nordeste 29 Nordeste 0 -- -- 51
2020-01-20 10:00:00 10 7 Norte 22 Norte 0 -- -- 53
2020-01-20 09:00:00 9.6 8 Norte 23 Norte 0 -- -- 55
2020-01-20 08:00:00 9.6 9 Norte 30 Norte 0 -- -- 52
2020-01-20 07:00:00 10.3 11 Norte 35 Noroeste 0 -- -- 47
2020-01-20 06:00:00 10.5 10 Norte 41 Norte 0 -- -- 39
2020-01-20 05:00:00 10.2 8 Norte 31 Norte 0 -- -- 34
2020-01-20 04:00:00 10 12 Norte 26 Noroeste 0.2 -- -- 35
2020-01-20 03:00:00 9.8 6 Norte 17 Norte 0 -- -- 34
2020-01-20 02:00:00 9.5 6 Norte 18 Nordeste 0 -- -- 32
2020-01-20 01:00:00 9.8 7 Norte 20 Noroeste 0 -- -- 32
2020-01-20 00:00:00 9.7 6 Norte 20 Norte 0 -- -- 33
2020-01-19 23:00:00 9.6 7 Norte 20 Noroeste 0 -- -- 32
2020-01-19 22:00:00 9.7 6 Norte 19 Norte 0 -- -- 32
2020-01-19 21:00:00 9.9 7 Norte 20 Nordeste 0 -- -- 31
2020-01-19 20:00:00 9.3 7 Norte 20 Este 0 -- -- 38
2020-01-19 19:00:00 9.4 5 Nordeste 17 Este 0 -- -- 46
2020-01-19 18:00:00 9.8 0 Calma 6 Norte 0 -- -- 82
2020-01-19 17:00:00 10.4 5 Noroeste 10 Noroeste 0 -- -- 79
2020-01-19 16:00:00 10.4 4 Noroeste 9 Noroeste 0 -- -- 82
2020-01-19 15:00:00 10 4 Noroeste 8 Noroeste 0 -- -- 80
2020-01-19 14:00:00 9.7 0 Calma 8 Este 0 -- -- 81
2020-01-19 13:00:00 9.2 3 Este 10 Este 0 -- -- 88
2020-01-19 12:00:00 9 5 Este 12 Este 0 -- -- 90
2020-01-19 11:00:00 9.2 3 Este 17 Norte 0.2 -- -- 91
2020-01-19 10:00:00 8.8 5 Norte 13 Nordeste 1.4 -- -- 92
2020-01-19 09:00:00 8.6 5 Norte 19 Nordeste 1.6 -- -- 90
2020-01-19 08:00:00 9 6 Nordeste 20 Este 1.8 -- -- 88
2020-01-19 07:00:00 10 4 Norte 20 Este 0.2 -- -- 86
2020-01-19 06:00:00 10.3 7 Este 23 Este 0 -- -- 86
2020-01-19 05:00:00 10.6 6 Este 21 Este 0 -- -- 86
2020-01-19 04:00:00 10.9 4 Nordeste 14 Norte 0 -- -- 89
2020-01-19 03:00:00 10.8 4 Nordeste 14 Nordeste 0 -- -- 91
2020-01-19 02:00:00 10.5 4 Nordeste 12 Nordeste 0 -- -- 93
2020-01-19 01:00:00 10.6 2 Nordeste 12 Nordeste 0 -- -- 92
2020-01-19 00:00:00 10.8 3 Este 7 Este 0.2 -- -- 93
2020-01-18 23:00:00 10.8 3 Este 8 Este 0 -- -- 93
2020-01-18 22:00:00 10.8 0 Calma 13 Norte 1.4 -- -- 93
2020-01-18 21:00:00 11 7 Noroeste 11 Noroeste 2.4 -- -- 90
2020-01-18 20:00:00 12.2 3 Este 8 Este 0 -- -- 81
2020-01-18 19:00:00 12.3 2 Este 7 Este 0 -- -- 74
2020-01-18 18:00:00 12.7 3 Sur 13 Sudeste 0 -- -- 72
2020-01-18 17:00:00 13.6 6 Sur 16 Sur 0 -- -- 68
2020-01-18 16:00:00 14.8 7 Sudoeste 21 Sudoeste 0 -- -- 60
2020-01-18 15:00:00 14.9 7 Sudoeste 18 Sudoeste 0 -- -- 57
2020-01-18 14:00:00 14.9 8 Sudoeste 18 Oeste 0 -- -- 53
2020-01-18 13:00:00 14.7 5 Sur 13 Este 0 -- -- 53
2020-01-18 12:00:00 13.8 5 Sudoeste 11 Sudoeste 0 -- -- 51
2020-01-18 11:00:00 11.6 2 Sudoeste 5 Oeste 0 -- -- 54
2020-01-18 10:00:00 8.7 0 Calma 6 Este 0 -- -- 64
2020-01-18 09:00:00 7.7 0 Calma 11 Nordeste 0 -- -- 65
2020-01-18 08:00:00 7.3 0 Calma 13 Norte 0 -- -- 64
2020-01-18 07:00:00 7.8 8 Noroeste 15 Noroeste 0 -- -- 61
2020-01-18 06:00:00 8 5 Noroeste 14 Noroeste 0 -- -- 62
2020-01-18 05:00:00 7.6 4 Noroeste 8 Noroeste 0 -- -- 65
2020-01-18 04:00:00 7.3 3 Noroeste 9 Noroeste 0 -- -- 64
2020-01-18 03:00:00 8.2 4 Noroeste 11 Noroeste 0 -- -- 63
2020-01-18 02:00:00 8.5 4 Norte 11 Norte 0 -- -- 60
2020-01-18 01:00:00 10.1 3 Noroeste 14 Sudoeste 0 -- -- 53
2020-01-18 00:00:00 11.7 6 Oeste 18 Oeste 0 -- -- 46
2020-01-17 23:00:00 13.2 7 Noroeste 23 Noroeste 0 -- -- 37
2020-01-17 22:00:00 14.1 6 Sudoeste 30 Noroeste 0 -- -- 38
2020-01-17 21:00:00 14.6 13 Noroeste 54 Noroeste 0 -- -- 35
2020-01-17 20:00:00 14.2 15 Noroeste 35 Oeste 0 -- -- 38
2020-01-17 19:00:00 14.3 11 Noroeste 27 Noroeste 0 -- -- 41
2020-01-17 18:00:00 15.3 12 Noroeste 36 Norte 0 -- -- 43
2020-01-17 17:00:00 17.1 14 Noroeste 37 Noroeste 0 -- -- 44
2020-01-17 16:00:00 18.4 15 Noroeste 33 Oeste 0 -- -- 44
2020-01-17 15:00:00 18.6 10 Noroeste 32 Noroeste 0 -- -- 44
2020-01-17 14:00:00 18.5 10 Noroeste 36 Noroeste 0 -- -- 44
2020-01-17 13:00:00 18.6 8 Noroeste 24 Noroeste 0 -- -- 44
2020-01-17 12:00:00 17.4 7 Oeste 26 Oeste 0 -- -- 48
2020-01-17 11:00:00 13.8 4 Oeste 10 Oeste 0 -- -- 69
2020-01-17 10:00:00 10.5 2 Noroeste 8 Noroeste 0 -- -- 91
2020-01-17 09:00:00 7.8 4 Noroeste 9 Noroeste 0 -- -- 94
2020-01-17 08:00:00 9.1 0 Calma 5 Noroeste 0 -- -- 94
2020-01-17 07:00:00 9.3 0 Calma 8 Norte 0 -- -- 94
2020-01-17 06:00:00 9.2 2 Norte 7 Noroeste 0 -- -- 95
2020-01-17 05:00:00 8.6 4 Noroeste 10 Noroeste 0 -- -- 96
2020-01-17 04:00:00 7.3 5 Noroeste 8 Noroeste 0 -- -- 95
2020-01-17 03:00:00 7.5 0 Calma 13 Noroeste 0 -- -- 94
2020-01-17 02:00:00 8.3 0 Calma 8 Norte 0 -- -- 94
2020-01-17 01:00:00 8.6 4 Noroeste 10 Noroeste 0 -- -- 95
2020-01-17 00:00:00 8.6 0 Calma 5 Oeste 0 -- -- 94
2020-01-16 23:00:00 8.7 4 Noroeste 8 Noroeste 0 -- -- 93
2020-01-16 22:00:00 9.6 3 Noroeste 6 Noroeste 0 -- -- 92
2020-01-16 21:00:00 10.2 3 Norte 9 Noroeste 0 -- -- 92
2020-01-16 20:00:00 10.7 0 Calma 4 Noroeste 0 -- -- 89
2020-01-16 19:00:00 11.5 0 Calma 4 Este 0 -- -- 86
2020-01-16 18:00:00 12.8 3 Este 10 Sudeste 0 -- -- 83
2020-01-16 17:00:00 13.9 7 Sudeste 12 Sudeste 0 -- -- 77
2020-01-16 16:00:00 15.9 4 Sudeste 10 Sudeste 0 -- -- 66
2020-01-16 15:00:00 15.8 6 Sudeste 10 Sudeste 0 -- -- 67
2020-01-16 14:00:00 15.6 5 Sur 14 Este 0 -- -- 69
2020-01-16 13:00:00 15.4 4 Sur 10 Sudeste 0 -- -- 67
2020-01-16 12:00:00 14.7 4 Sur 6 Sudeste 0 -- -- 67
2020-01-16 11:00:00 12.6 2 Sudoeste 6 Norte 0 -- -- 67
2020-01-16 10:00:00 9.1 4 Noroeste 8 Noroeste 0 -- -- 81
2020-01-16 09:00:00 6.5 0 Calma 4 Noroeste 0 -- -- 88
2020-01-16 08:00:00 6 0 Calma 3 Este 0 -- -- 92
2020-01-16 07:00:00 6.1 0 Calma 4 Norte 0 -- -- 94
2020-01-16 06:00:00 6.2 0 Calma 4 Este 0 -- -- 94
2020-01-16 05:00:00 6.3 0 Calma 6 Noroeste 0 -- -- 93
2020-01-16 04:00:00 6.7 0 Calma 6 Noroeste 0 -- -- 94
2020-01-16 03:00:00 6.8 0 Calma 3 Noroeste 0 -- -- 92
2020-01-16 02:00:00 6.8 0 Calma 3 Este 0 -- -- 90
2020-01-16 01:00:00 6.5 2 Este 5 Este 0 -- -- 87
2020-01-16 00:00:00 7 0 Calma 4 Este 0 -- -- 86
2020-01-15 23:00:00 7.4 0 Calma 7 Noroeste 0 -- -- 84
2020-01-15 22:00:00 8.5 3 Noroeste 5 Noroeste 0 -- -- 81
2020-01-15 21:00:00 8.8 0 Calma 8 Noroeste 0 -- -- 85
2020-01-15 20:00:00 9.5 3 Noroeste 6 Noroeste 0 -- -- 80
2020-01-15 19:00:00 10.9 3 Noroeste 12 Oeste 0 -- -- 72
2020-01-15 18:00:00 12.3 4 Oeste 18 Oeste 0 -- -- 67
2020-01-15 17:00:00 13.6 4 Oeste 14 Sudoeste 0 -- -- 62
2020-01-15 16:00:00 14.6 6 Sudoeste 13 Sudoeste 0 -- -- 55
2020-01-15 15:00:00 14.2 4 Sur 10 Oeste 0 -- -- 57
2020-01-15 14:00:00 14.2 6 Sudoeste 12 Sudoeste 0 -- -- 52
2020-01-15 13:00:00 14.2 4 Sur 9 Noroeste 0 -- -- 48
2020-01-15 12:00:00 12.7 2 Oeste 6 Noroeste 0 -- -- 50
2020-01-15 11:00:00 11.5 3 Noroeste 8 Norte 0 -- -- 58
2020-01-15 10:00:00 8.7 2 Sudoeste 11 Norte 0 -- -- 65
2020-01-15 09:00:00 5.4 0 Calma 12 Norte 0 -- -- 73
2020-01-15 08:00:00 5.6 6 Norte 13 Norte 0 -- -- 70
2020-01-15 07:00:00 5.6 5 Norte 13 Norte 0 -- -- 71
2020-01-15 06:00:00 5.7 3 Norte 12 Norte 0 -- -- 72
2020-01-15 05:00:00 5.9 4 Norte 13 Norte 0 -- -- 74
2020-01-15 04:00:00 5.9 6 Norte 12 Norte 0 -- -- 74
2020-01-15 03:00:00 4.8 4 Noroeste 10 Noroeste 0 -- -- 77
2020-01-15 02:00:00 5.7 5 Norte 10 Noroeste 0 -- -- 74
2020-01-15 01:00:00 5.3 4 Norte 9 Noroeste 0 -- -- 77
2020-01-15 00:00:00 5.1 4 Noroeste 11 Noroeste 0 -- -- 80
2020-01-14 23:00:00 6.1 3 Noroeste 6 Noroeste 0 -- -- 78
2020-01-14 22:00:00 6.2 5 Noroeste 8 Noroeste 0 -- -- 76
2020-01-14 21:00:00 7.2 3 Noroeste 7 Noroeste 0 -- -- 71
2020-01-14 20:00:00 8.4 3 Noroeste 6 Noroeste 0 -- -- 65
2020-01-14 19:00:00 10.1 2 Norte 4 Norte 0 -- -- 60
2020-01-14 18:00:00 11.8 2 Oeste 7 Este 0 -- -- 53
2020-01-14 17:00:00 13.2 4 Sur 10 Sudeste 0 -- -- 55
2020-01-14 16:00:00 14.5 6 Sudeste 12 Sudeste 0 -- -- 54
2020-01-14 15:00:00 14.8 4 Sur 10 Sudeste 0 -- -- 55
2020-01-14 14:00:00 14.6 5 Sudeste 13 Este 0 -- -- 50
2020-01-14 13:00:00 14.9 4 Sur 9 Sur 0 -- -- 38
2020-01-14 12:00:00 13.5 4 Sur 9 Sudeste 0 -- -- 45
2020-01-14 11:00:00 12.4 2 Norte 9 Noroeste 0 -- -- 45
2020-01-14 10:00:00 9.2 2 Sudeste 9 Norte 0 -- -- 54
2020-01-14 09:00:00 5.6 0 Calma 10 Norte 0 -- -- 63
2020-01-14 08:00:00 4.9 0 Calma 12 Norte 0 -- -- 66
2020-01-14 07:00:00 4.1 5 Noroeste 8 Noroeste 0 -- -- 70
2020-01-14 06:00:00 4.6 0 Calma 6 Este 0 -- -- 67
2020-01-14 05:00:00 4.9 0 Calma 13 Noroeste 0 -- -- 65
2020-01-14 04:00:00 5.3 4 Noroeste 13 Norte 0 -- -- 66
2020-01-14 03:00:00 5.5 2 Norte 10 Norte 0 -- -- 67
2020-01-14 02:00:00 5.3 2 Norte 11 Norte 0 -- -- 71
2020-01-14 01:00:00 6 6 Norte 15 Norte 0 -- -- 73
2020-01-14 00:00:00 5.9 0 Calma 10 Noroeste 0 -- -- 75
2020-01-13 23:00:00 6.1 4 Norte 10 Nordeste 0 -- -- 84
2020-01-13 22:00:00 6.4 2 Noroeste 6 Noroeste 0 -- -- 83
2020-01-13 21:00:00 7.1 4 Noroeste 7 Noroeste 0 -- -- 81
2020-01-13 20:00:00 8.1 0 Calma 4 Noroeste 0 -- -- 80
2020-01-13 19:00:00 9.4 0 Calma 4 Noroeste 0 -- -- 76
2020-01-13 18:00:00 10.3 0 Calma 8 Oeste 0 -- -- 72
2020-01-13 17:00:00 11.5 4 Sudoeste 12 Sudoeste 0 -- -- 68
2020-01-13 16:00:00 12.6 5 Sudoeste 12 Sudoeste 0 -- -- 62
2020-01-13 15:00:00 12.8 6 Sudoeste 17 Oeste 0 -- -- 61
2020-01-13 14:00:00 13 4 Sudeste 11 Sudeste 0 -- -- 56
2020-01-13 13:00:00 13.1 6 Sudeste 12 Sudeste 0 -- -- 45
2020-01-13 12:00:00 12 4 Sudeste 9 Este 0 -- -- 48
2020-01-13 11:00:00 10.9 4 Sudeste 7 Este 0 -- -- 49
2020-01-13 10:00:00 8.2 2 Norte 10 Norte 0 -- -- 59
2020-01-13 09:00:00 5 4 Norte 10 Nordeste 0 -- -- 68
2020-01-13 08:00:00 4.8 5 Norte 14 Norte 0 -- -- 69
2020-01-13 07:00:00 4.6 4 Norte 10 Norte 0 -- -- 70
2020-01-13 06:00:00 4.4 3 Norte 8 Noroeste 0 -- -- 70
2020-01-13 05:00:00 4.7 0 Calma 12 Nordeste 0 -- -- 67
2020-01-13 04:00:00 5.4 5 Norte 11 Norte 0 -- -- 64
2020-01-13 03:00:00 4.2 4 Norte 10 Norte 0 -- -- 67
2020-01-13 02:00:00 3.8 3 Noroeste 6 Noroeste 0 -- -- 68
2020-01-13 01:00:00 3.9 2 Noroeste 5 Noroeste 0 -- -- 68
2020-01-13 00:00:00 4.7 2 Noroeste 6 Noroeste 0 -- -- 65
2020-01-12 23:00:00 5.8 4 Norte 10 Noroeste 0 -- -- 60
2020-01-12 22:00:00 6.1 0 Calma 5 Noroeste 0 -- -- 63
2020-01-12 21:00:00 7.6 2 Este 11 Norte 0 -- -- 58
2020-01-12 20:00:00 8.8 5 Norte 14 Noroeste 0 -- -- 55
2020-01-12 19:00:00 9.6 5 Norte 13 Norte 0 -- -- 55
2020-01-12 18:00:00 11.3 5 Norte 12 Norte 0 -- -- 52
2020-01-12 17:00:00 13.8 2 Oeste 9 Oeste 0 -- -- 45
2020-01-12 16:00:00 15.1 2 Sudoeste 9 Sudoeste 0 -- -- 51
2020-01-12 15:00:00 14.7 4 Sudoeste 10 Sudoeste 0 -- -- 49
2020-01-12 14:00:00 14.3 4 Oeste 10 Oeste 0 -- -- 48
2020-01-12 13:00:00 13.3 4 Sudeste 10 Sudeste 0 -- -- 56
2020-01-12 12:00:00 12.2 5 Sudeste 12 Este 0 -- -- 57
2020-01-12 11:00:00 11.2 5 Este 12 Nordeste 0 -- -- 59
2020-01-12 10:00:00 8.1 4 Este 13 Norte 0 -- -- 68
2020-01-12 09:00:00 5.1 4 Norte 17 Norte 0 -- -- 75
2020-01-12 08:00:00 5.4 6 Norte 14 Norte 0 -- -- 72
2020-01-12 07:00:00 5.3 5 Norte 14 Norte 0 -- -- 74
2020-01-12 06:00:00 3.7 3 Norte 10 Norte 0 -- -- 85
2020-01-12 05:00:00 3.5 0 Calma 3 Sudeste 0 -- -- 87
2020-01-12 04:00:00 3.9 0 Calma 4 Noroeste 0 -- -- 86
2020-01-12 03:00:00 4.6 0 Calma 6 Norte 0 -- -- 83
2020-01-12 02:00:00 5.4 3 Norte 9 Noroeste 0 -- -- 82
2020-01-12 01:00:00 5.7 4 Norte 10 Norte 0 -- -- 82
2020-01-12 00:00:00 6 0 Calma 12 Norte 0 -- -- 80
2020-01-11 23:00:00 6.3 4 Norte 12 Norte 0 -- -- 79
2020-01-11 22:00:00 5.6 0 Calma 5 Nordeste 0 -- -- 82
2020-01-11 21:00:00 6.5 0 Calma 7 Nordeste 0 -- -- 78
2020-01-11 20:00:00 7.1 0 Calma 5 Este 0 -- -- 81
2020-01-11 19:00:00 8.3 2 Este 7 Nordeste 0 -- -- 76
2020-01-11 18:00:00 10.2 3 Este 11 Sudeste 0 -- -- 70
2020-01-11 17:00:00 12 5 Este 13 Este 0 -- -- 61
2020-01-11 16:00:00 13.5 6 Sudeste 15 Este 0 -- -- 55
2020-01-11 15:00:00 14.2 7 Sudeste 18 Nordeste 0 -- -- 49
2020-01-11 14:00:00 14.6 7 Sudeste 12 Sudeste 0 -- -- 47
2020-01-11 13:00:00 14.7 3 Nordeste 10 Oeste 0 -- -- 48
2020-01-11 12:00:00 13 3 Norte 9 Noroeste 0 -- -- 54
2020-01-11 11:00:00 10.7 4 Sudeste 10 Norte 0 -- -- 61
2020-01-11 10:00:00 7.8 5 Noroeste 11 Norte 0 -- -- 75
2020-01-11 09:00:00 4.3 4 Noroeste 10 Noroeste 0 -- -- 87
2020-01-11 08:00:00 4.5 3 Noroeste 17 Noroeste 0 -- -- 86
2020-01-11 07:00:00 4.1 7 Noroeste 14 Noroeste 0 -- -- 90
2020-01-11 06:00:00 4.5 2 Noroeste 12 Norte 0 -- -- 85
2020-01-11 05:00:00 5 5 Noroeste 15 Noroeste 0 -- -- 87
2020-01-11 04:00:00 5.9 5 Norte 12 Noroeste 0 -- -- 87
2020-01-11 03:00:00 5.3 3 Norte 9 Norte 0 -- -- 90
2020-01-11 02:00:00 5.2 0 Calma 8 Este 0 -- -- 88
2020-01-11 01:00:00 5.9 2 Este 5 Este 0 -- -- 88
2020-01-11 00:00:00 5.9 2 Este 6 Nordeste 0 -- -- 87
2020-01-10 23:00:00 6.2 3 Este 5 Este 0 -- -- 85
2020-01-10 22:00:00 7.2 0 Calma 3 Norte 0 -- -- 82
2020-01-10 21:00:00 7.4 0 Calma 6 Norte 0 -- -- 81
2020-01-10 20:00:00 8.1 3 Norte 7 Norte 0 -- -- 81
2020-01-10 19:00:00 8.9 0 Calma 11 Norte 0 -- -- 79
2020-01-10 18:00:00 9.7 5 Noroeste 12 Noroeste 0 -- -- 79
2020-01-10 17:00:00 11.2 5 Noroeste 14 Noroeste 0 -- -- 77
2020-01-10 16:00:00 12.1 4 Noroeste 13 Noroeste 0 -- -- 74
2020-01-10 15:00:00 11.2 0 Calma 8 Noroeste 0.4 -- -- 84
2020-01-10 14:00:00 10.9 4 Norte 12 Noroeste 0 -- -- 83
2020-01-10 13:00:00 9.7 6 Norte 14 Noroeste 0 -- -- 90
2020-01-10 12:00:00 8.9 5 Noroeste 13 Norte 1.2 -- -- 91
2020-01-10 11:00:00 8.8 6 Norte 21 Noroeste 0 -- -- 79
2020-01-10 10:00:00 8.6 9 Norte 24 Noroeste 0 -- -- 78
2020-01-10 09:00:00 8.4 8 Norte 19 Noroeste 0 -- -- 80
2020-01-10 08:00:00 8.4 8 Noroeste 23 Noroeste 0 -- -- 80
2020-01-10 07:00:00 8.5 2 Noroeste 14 Noroeste 0 -- -- 84
2020-01-10 06:00:00 9.1 2 Noroeste 10 Noroeste 0 -- -- 83
2020-01-10 05:00:00 9.6 5 Noroeste 15 Norte 0 -- -- 84
2020-01-10 04:00:00 10 3 Noroeste 5 Noroeste 0 -- -- 88
2020-01-10 03:00:00 10.6 0 Calma 6 Oeste 0 -- -- 87
2020-01-10 02:00:00 10.5 0 Calma 5 Noroeste 0 -- -- 87
2020-01-10 01:00:00 10.7 3 Noroeste 4 Noroeste 0 -- -- 87
2020-01-10 00:00:00 10.2 0 Calma 4 Noroeste 0 -- -- 87
2020-01-09 23:00:00 10.3 0 Calma 5 Noroeste 0 -- -- 87
2020-01-09 22:00:00 10.1 2 Noroeste 5 Noroeste 0 -- -- 88
2020-01-09 21:00:00 10 0 Calma 5 Noroeste 0 -- -- 88
2020-01-09 20:00:00 10.6 0 Calma 10 Noroeste 0 -- -- 84
2020-01-09 19:00:00 11.3 3 Oeste 8 Oeste 0 -- -- 83
2020-01-09 18:00:00 11.8 3 Sudoeste 15 Oeste 0 -- -- 80
2020-01-09 17:00:00 12.9 6 Sur 16 Sudoeste 0 -- -- 74
2020-01-09 16:00:00 14 7 Sudoeste 18 Oeste 0 -- -- 68
2020-01-09 15:00:00 14.8 6 Sudoeste 15 Sudoeste 0 -- -- 68
2020-01-09 14:00:00 15 7 Sudoeste 17 Sudoeste 0 -- -- 65
2020-01-09 13:00:00 15 6 Sudoeste 14 Sudoeste 0 -- -- 67
2020-01-09 12:00:00 13.9 4 Oeste 10 Oeste 0 -- -- 71
2020-01-09 11:00:00 11.5 0 Calma 4 Noroeste 0 -- -- 77
2020-01-09 10:00:00 10.3 0 Calma 8 Noroeste 0 -- -- 84
2020-01-09 09:00:00 7.7 4 Norte 13 Norte 0 -- -- 89
2020-01-09 08:00:00 7.6 6 Norte 13 Norte 0 -- -- 89
2020-01-09 07:00:00 7.3 6 Noroeste 11 Noroeste 0 -- -- 90
2020-01-09 06:00:00 7.6 4 Noroeste 10 Noroeste 0 -- -- 89
2020-01-09 05:00:00 8.2 6 Noroeste 11 Norte 0 -- -- 86
2020-01-09 04:00:00 9.1 7 Noroeste 10 Norte 0 -- -- 86
2020-01-09 03:00:00 8.4 6 Norte 10 Noroeste 0 -- -- 91
2020-01-09 02:00:00 7.5 4 Noroeste 7 Noroeste 0 -- -- 90
2020-01-09 01:00:00 8.3 4 Noroeste 8 Norte 0 -- -- 89
2020-01-09 00:00:00 8.3 3 Noroeste 8 Norte 0 -- -- 91
2020-01-08 23:00:00 8.2 0 Calma 5 Noroeste 0 -- -- 89
2020-01-08 22:00:00 9.1 0 Calma 6 Norte 0 -- -- 87
2020-01-08 21:00:00 10 3 Noroeste 8 Norte 0 -- -- 84
2020-01-08 20:00:00 10.9 0 Calma 4 Noroeste 0 -- -- 83
2020-01-08 19:00:00 11.9 0 Calma 4 Noroeste 0 -- -- 78
2020-01-08 18:00:00 13.2 3 Oeste 6 Sur 0 -- -- 73
2020-01-08 17:00:00 14.6 3 Sur 12 Sudoeste 0 -- -- 66
2020-01-08 16:00:00 16.5 4 Sudoeste 12 Sudoeste 0 -- -- 60
2020-01-08 15:00:00 17.5 5 Sudoeste 10 Sudoeste 0 -- -- 56
2020-01-08 14:00:00 17.3 4 Sudoeste 11 Sudoeste 0 -- -- 58
2020-01-08 13:00:00 16.8 3 Este 9 Sudeste 0 -- -- 59
2020-01-08 12:00:00 15.4 4 Norte 13 Noroeste 0 -- -- 60
2020-01-08 11:00:00 13 5 Noroeste 9 Noroeste 0 -- -- 61
2020-01-08 10:00:00 9.4 5 Norte 10 Norte 0 -- -- 64
2020-01-08 09:00:00 5.8 0 Calma 4 Noroeste 0 -- -- 73
2020-01-08 08:00:00 5.5 0 Calma 11 Norte 0 -- -- 71
2020-01-08 07:00:00 6.2 6 Noroeste 11 Noroeste 0 -- -- 68
2020-01-08 06:00:00 6.6 6 Norte 13 Norte 0 -- -- 66
2020-01-08 05:00:00 5.5 3 Nordeste 10 Norte 0 -- -- 73
2020-01-08 04:00:00 5.9 4 Norte 17 Noroeste 0 -- -- 72
2020-01-08 03:00:00 5.9 6 Norte 17 Noroeste 0 -- -- 72
2020-01-08 02:00:00 6.1 8 Norte 22 Norte 0 -- -- 71
2020-01-08 01:00:00 5.9 9 Norte 21 Norte 0 -- -- 72
2020-01-08 00:00:00 6 2 Norte 12 Norte 0 -- -- 74
2020-01-07 23:00:00 6 2 Norte 8 Noroeste 0 -- -- 78
2020-01-07 22:00:00 6.6 4 Noroeste 9 Norte 0 -- -- 74
2020-01-07 21:00:00 7.2 5 Noroeste 18 Nordeste 0 -- -- 71
2020-01-07 20:00:00 7.4 8 Norte 18 Norte 0 -- -- 71
2020-01-07 19:00:00 8.1 9 Norte 17 Nordeste 0 -- -- 69
2020-01-07 18:00:00 9.4 7 Norte 14 Norte 0 -- -- 67
2020-01-07 17:00:00 11.8 4 Norte 13 Noroeste 0 -- -- 61
2020-01-07 16:00:00 14.1 5 Norte 11 Noroeste 0 -- -- 55
2020-01-07 15:00:00 14 5 Norte 16 Noroeste 0 -- -- 55
2020-01-07 14:00:00 13.4 7 Norte 17 Noroeste 0 -- -- 56
2020-01-07 13:00:00 13 8 Noroeste 16 Noroeste 0 -- -- 57
2020-01-07 12:00:00 11.7 5 Noroeste 17 Norte 0 -- -- 61
2020-01-07 11:00:00 9.5 6 Noroeste 20 Norte 0 -- -- 64
2020-01-07 10:00:00 7.1 10 Norte 19 Norte 0 -- -- 71
2020-01-07 09:00:00 4.7 0 Calma 14 Norte 0 -- -- 81
2020-01-07 08:00:00 4.8 7 Noroeste 22 Norte 0 -- -- 81
2020-01-07 07:00:00 5.1 8 Norte 20 Norte 0 -- -- 82
2020-01-07 06:00:00 5.4 8 Norte 17 Norte 0 -- -- 82
2020-01-07 05:00:00 5.6 7 Norte 21 Norte 0 -- -- 81
2020-01-07 04:00:00 5.9 9 Norte 21 Norte 0 -- -- 78
2020-01-07 03:00:00 6.1 10 Norte 20 Norte 0 -- -- 78
2020-01-07 02:00:00 6.4 6 Norte 18 Norte 0 -- -- 78
2020-01-07 01:00:00 6.8 7 Norte 19 Norte 0 -- -- 77
2020-01-07 00:00:00 7 8 Norte 18 Norte 0 -- -- 77
2020-01-06 23:00:00 7.4 9 Norte 18 Norte 0 -- -- 78
2020-01-06 22:00:00 8 8 Norte 19 Norte 0 -- -- 80
2020-01-06 21:00:00 8.5 3 Norte 13 Norte 0 -- -- 89
2020-01-06 20:00:00 9.1 0 Calma 5 Noroeste 0 -- -- 85
2020-01-06 19:00:00 10.7 2 Noroeste 7 Oeste 0 -- -- 82
2020-01-06 18:00:00 11.6 0 Calma 8 Sudoeste 0 -- -- 79
2020-01-06 17:00:00 12.8 4 Sudoeste 12 Sudoeste 0 -- -- 75
2020-01-06 16:00:00 14.6 6 Sudoeste 16 Sudoeste 0 -- -- 70
2020-01-06 15:00:00 14.8 6 Sur 14 Sur 0 -- -- 66
2020-01-06 14:00:00 14.9 5 Sur 11 Sur 0 -- -- 65
2020-01-06 13:00:00 14.5 5 Sudoeste 11 Sudeste 0 -- -- 67
2020-01-06 12:00:00 13 3 Sur 6 Sur 0 -- -- 70
2020-01-06 11:00:00 10.8 3 Noroeste 7 Norte 0 -- -- 76
2020-01-06 10:00:00 7.6 3 Noroeste 4 Noroeste 0 -- -- 89